Time;durP1;ratioP1;P1;durP2;ratioP2;P2;SDS_P1;SDS_P2;PMS_P1;PMS_P2;Temp;Humidity;BMP_temperature;BMP_pressure;BME280_temperature;BME280_humidity;BME280_pressure;Samples;Min_cycle;Max_cycle;Signal;HPM_P1;HPM_P2
2022/06/12 00:04:20;;;;;;;8.25;4.20;;;;;;;14.39;80.52;102223.84;10410080;28;20519;-76
2022/06/12 00:09:21;;;;;;;12.50;4.35;;;;;;;14.27;81.03;102226.94;10392091;28;20455;-75
2022/06/12 00:14:23;;;;;;;9.07;4.10;;;;;;;14.25;79.04;102229.47;10409261;28;20177;-75
2022/06/12 00:19:25;;;;;;;9.68;4.40;;;;;;;14.18;79.65;102231.81;10409611;28;20045;-76
2022/06/12 00:24:27;;;;;;;8.93;4.32;;;;;;;14.09;79.63;102240.19;10409953;28;20045;-76
2022/06/12 00:29:32;;;;;;;8.60;4.20;;;;;;;13.94;79.07;102227.59;10417319;28;20100;-75
2022/06/12 00:34:37;;;;;;;12.60;4.75;;;;;;;13.92;79.15;102229.25;10417483;28;20104;-76
2022/06/12 00:39:41;;;;;;;11.48;4.15;;;;;;;13.73;79.97;102225.16;10399685;28;20404;-76
2022/06/12 00:44:43;;;;;;;7.57;4.25;;;;;;;13.53;80.10;102225.34;10399537;28;20057;-75
2022/06/12 00:49:52;;;;;;;12.32;4.25;;;;;;;13.39;82.17;102226.56;10417560;28;20076;-76
2022/06/12 00:55:00;;;;;;;10.10;4.20;;;;;;;13.23;81.47;102225.97;10416838;28;20547;-75
2022/06/12 01:00:12;;;;;;;9.90;4.10;;;;;;;13.32;79.48;102228.91;10383115;28;20448;-75
2022/06/12 01:10:41;;;;;;;6.93;3.78;;;;;;;12.97;80.99;102236.28;10414634;28;20049;-75
2022/06/12 01:15:57;;;;;;;7.47;3.97;;;;;;;12.87;81.38;102231.56;10415195;28;20378;-75
2022/06/12 01:21:21;;;;;;;10.40;3.92;;;;;;;12.79;82.42;102235.56;10395498;28;20225;-75
2022/06/12 01:26:37;;;;;;;9.38;3.88;;;;;;;12.81;81.70;102233.94;10394998;28;20148;-76
2022/06/12 01:31:51;;;;;;;11.95;4.47;;;;;;;12.71;81.49;102240.47;10414604;28;20448;-75
2022/06/12 01:37:14;;;;;;;6.93;4.03;;;;;;;12.58;81.08;102233.91;10409350;28;20065;-76
2022/06/12 01:42:27;;;;;;;10.80;3.90;;;;;;;12.54;81.59;102232.91;10414473;28;20107;-75
2022/06/12 01:47:47;;;;;;;7.75;3.55;;;;;;;12.37;81.33;102227.09;10406072;28;20448;-76
2022/06/12 01:52:59;;;;;;;;;;;;;;;12.28;82.56;102234.47;10413603;28;20493;-75
2022/06/12 01:58:17;;;;;;;11.30;4.00;;;;;;;12.15;83.03;102233.09;10414887;28;19929;-75
2022/06/12 02:03:28;;;;;;;7.82;3.33;;;;;;;12.08;82.45;102230.19;10395555;28;20072;-75
2022/06/12 02:08:51;;;;;;;10.00;3.80;;;;;;;11.95;83.44;102224.47;10414703;28;20041;-75
2022/06/12 02:13:55;;;;;;;13.02;3.85;;;;;;;12.09;83.37;102217.34;10395952;28;20111;-76
2022/06/12 02:19:02;;;;;;;8.32;3.83;;;;;;;11.82;83.23;102217.94;10414474;28;20053;-75
2022/06/12 02:24:11;;;;;;;8.18;3.55;;;;;;;11.87;81.19;102225.88;10414193;28;20060;-76
2022/06/12 02:29:18;;;;;;;8.50;2.87;;;;;;;12.12;79.72;102221.75;10416038;28;20077;-75
2022/06/12 02:34:25;;;;;;;7.40;3.13;;;;;;;11.84;79.93;102218.00;10409753;28;20432;-75
2022/06/12 02:39:39;;;;;;;13.65;3.90;;;;;;;12.03;79.46;102217.97;10411727;28;20477;-75
2022/06/12 02:44:51;;;;;;;9.82;3.40;;;;;;;12.06;79.97;102210.34;10399625;28;20485;-75
2022/06/12 02:49:56;;;;;;;6.82;2.90;;;;;;;11.73;81.74;102207.22;10411977;28;20045;-75
2022/06/12 02:55:05;;;;;;;8.95;3.50;;;;;;;11.67;81.78;102218.16;10404047;28;20507;-75
2022/06/12 03:00:52;;;;;;;8.17;3.50;;;;;;;11.13;85.76;102207.22;10399329;28;20054;-75
2022/06/12 03:05:57;;;;;;;7.03;3.30;;;;;;;11.50;84.31;102208.84;10389635;28;20064;-75
2022/06/12 03:11:03;;;;;;;6.30;3.20;;;;;;;10.88;85.11;102200.97;10412081;28;20095;-75
2022/06/12 03:16:23;;;;;;;6.38;3.03;;;;;;;11.10;84.49;102202.78;10405803;28;20053;-75
2022/06/12 03:21:44;;;;;;;7.38;3.00;;;;;;;10.89;83.76;102200.16;10411210;28;20053;-76
2022/06/12 03:26:57;;;;;;;5.43;2.92;;;;;;;11.03;84.08;102205.91;10399971;28;20128;-75
2022/06/12 03:32:34;;;;;;;9.60;3.40;;;;;;;11.08;82.37;102195.00;10411243;28;20041;-75
2022/06/12 03:37:45;;;;;;;7.85;3.00;;;;;;;11.01;82.75;102211.00;10408046;28;20112;-76
2022/06/12 03:42:54;;;;;;;8.65;3.13;;;;;;;10.92;83.72;102218.31;10421855;28;20068;-76
2022/06/12 03:48:31;;;;;;;8.18;3.55;;;;;;;10.92;84.74;102218.31;10417542;28;20037;-76
2022/06/12 03:53:39;;;;;;;6.55;3.38;;;;;;;10.92;84.29;102219.22;10372033;28;20539;-76
2022/06/12 03:58:49;;;;;;;6.25;3.20;;;;;;;11.16;83.22;102212.50;10403406;28;20052;-76
2022/06/12 04:03:53;;;;;;;13.82;3.50;;;;;;;11.27;82.19;102206.13;10419696;28;20492;-76
2022/06/12 04:09:05;;;;;;;7.90;3.20;;;;;;;11.40;82.49;102213.59;10424431;28;20416;-75
2022/06/12 04:14:13;;;;;;;12.27;3.20;;;;;;;11.82;81.20;102217.03;10418761;28;20053;-76
2022/06/12 04:19:22;;;;;;;8.07;3.20;;;;;;;11.93;80.30;102200.31;10417957;28;20047;-75
2022/06/12 04:24:46;;;;;;;7.83;2.90;;;;;;;12.04;81.04;102206.81;10418470;28;20065;-75
2022/06/12 04:29:53;;;;;;;8.05;3.20;;;;;;;12.32;81.04;102212.22;10400644;28;20053;-75
2022/06/12 04:34:55;;;;;;;9.50;3.70;;;;;;;12.61;81.26;102210.78;10399522;28;20061;-76
2022/06/12 04:39:58;;;;;;;7.25;3.30;;;;;;;12.97;81.21;102222.44;10432106;28;20057;-76
2022/06/12 04:45:01;;;;;;;13.05;3.67;;;;;;;13.31;79.89;102214.19;10416086;28;20045;-76
2022/06/12 04:50:03;;;;;;;11.10;3.58;;;;;;;13.29;80.86;102210.66;10398914;28;20065;-75
2022/06/12 04:55:04;;;;;;;8.30;3.40;;;;;;;13.55;80.92;102218.53;10416532;28;20258;-76
2022/06/12 05:00:07;;;;;;;8.63;3.30;;;;;;;13.67;80.73;102206.81;10397226;28;20052;-76
2022/06/12 05:05:09;;;;;;;11.05;3.30;;;;;;;13.83;80.34;102208.22;10412589;28;20041;-76
2022/06/12 05:10:14;;;;;;;12.93;3.20;;;;;;;14.04;79.28;102197.66;10414980;28;20497;-75
2022/06/12 05:15:18;;;;;;;13.07;3.30;;;;;;;14.31;78.08;102201.97;10414101;28;20508;-76
2022/06/12 05:20:24;;;;;;;8.55;3.13;;;;;;;14.57;77.63;102195.88;10396550;28;20128;-75
2022/06/12 05:25:26;;;;;;;13.18;3.45;;;;;;;14.68;77.83;102192.75;10415271;28;20041;-76
2022/06/12 05:30:29;;;;;;;9.70;3.20;;;;;;;14.79;75.17;102186.16;10396161;28;20100;-76
2022/06/12 05:35:33;;;;;;;12.60;3.40;;;;;;;15.05;75.88;102192.09;10413940;28;20053;-76
2022/06/12 05:40:37;;;;;;;12.60;2.65;;;;;;;15.19;74.39;102197.69;10414284;28;20053;-76
2022/06/12 05:45:39;;;;;;;12.05;3.55;;;;;;;15.39;73.41;102197.31;10414533;28;20374;-76
2022/06/12 05:51:01;;;;;;;12.38;3.08;;;;;;;15.73;73.88;102198.22;10414198;28;20060;-77
2022/06/12 05:56:13;;;;;;;16.80;3.90;;;;;;;15.83;73.72;102192.44;10414632;28;20041;-76
2022/06/12 06:01:17;;;;;;;12.95;3.38;;;;;;;15.99;73.02;102198.00;10405418;28;20105;-75
2022/06/12 06:06:23;;;;;;;12.75;3.67;;;;;;;16.10;73.24;102212.16;10412054;28;20045;-75
2022/06/12 06:11:25;;;;;;;16.63;4.05;;;;;;;16.41;72.87;102206.78;10411527;28;20064;-77
2022/06/12 06:16:27;;;;;;;16.65;4.70;;;;;;;16.61;72.41;102209.81;10412841;28;20056;-77
2022/06/12 06:21:29;;;;;;;12.23;4.05;;;;;;;16.39;72.14;102204.16;10413757;28;20493;-77
2022/06/12 06:26:30;;;;;;;14.40;4.35;;;;;;;16.54;71.73;102210.53;10413317;28;20379;-76
2022/06/12 06:31:32;;;;;;;12.23;4.03;;;;;;;16.85;71.11;102203.38;10402558;28;20053;-78
2022/06/12 06:36:34;;;;;;;15.55;4.38;;;;;;;16.98;71.02;102210.63;10412754;28;20045;-78
2022/06/12 06:41:36;;;;;;;18.98;4.32;;;;;;;17.43;70.21;102214.06;10412158;28;20057;-76
2022/06/12 06:46:38;;;;;;;13.65;3.80;;;;;;;17.45;68.70;102207.19;10427716;28;20440;-76
2022/06/12 06:51:40;;;;;;;15.32;4.15;;;;;;;17.92;68.14;102208.84;10389878;28;20045;-77
2022/06/12 06:56:43;;;;;;;19.27;4.60;;;;;;;18.39;66.08;102211.34;10411830;28;20053;-76
2022/06/12 07:01:45;;;;;;;16.67;4.35;;;;;;;19.20;65.52;102212.38;10410751;28;20484;-76
2022/06/12 07:06:47;;;;;;;20.42;4.28;;;;;;;19.32;63.21;102217.72;10411486;28;20037;-76
2022/06/12 07:11:49;;;;;;;12.65;3.42;;;;;;;19.90;64.17;102210.44;10400562;28;20045;-76
2022/06/12 07:16:51;;;;;;;17.20;3.80;;;;;;;19.51;62.24;102217.91;10410570;28;20540;-75
2022/06/12 07:21:53;;;;;;;17.85;3.60;;;;;;;19.85;61.27;102218.25;10410425;28;20054;-76
2022/06/12 07:27:01;;;;;;;13.38;3.25;;;;;;;20.54;61.04;102209.13;10401009;28;20402;-77
2022/06/12 07:32:03;;;;;;;14.18;3.42;;;;;;;20.16;61.00;102228.94;10409121;28;20073;-77
2022/06/12 07:37:06;;;;;;;13.25;3.38;;;;;;;20.69;57.46;102214.44;10409181;28;20041;-77
2022/06/12 07:42:08;;;;;;;20.55;3.85;;;;;;;20.50;59.07;102216.09;10386815;28;20045;-77
2022/06/12 07:47:10;;;;;;;20.10;4.20;;;;;;;20.59;59.19;102207.38;10403978;28;20420;-77
2022/06/12 07:52:12;;;;;;;12.73;3.42;;;;;;;21.21;58.30;102213.75;10389403;28;20053;-77
2022/06/12 07:57:14;;;;;;;14.45;3.83;;;;;;;21.33;57.36;102210.28;10403320;28;20134;-75
2022/06/12 08:02:16;;;;;;;20.48;3.58;;;;;;;21.15;55.49;102208.50;10386541;28;20485;-74
2022/06/12 08:07:17;;;;;;;15.70;3.75;;;;;;;21.69;57.43;102205.97;10400470;28;20128;-75
2022/06/12 08:12:19;;;;;;;13.63;2.92;;;;;;;22.08;55.53;102205.94;10401252;28;20053;-74
2022/06/12 08:17:21;;;;;;;13.52;2.70;;;;;;;21.87;55.50;102212.97;10399654;28;20042;-74
2022/06/12 08:22:22;;;;;;;13.63;3.03;;;;;;;22.22;53.50;102215.56;10403944;28;20777;-75
2022/06/12 08:27:24;;;;;;;13.70;2.80;;;;;;;22.11;53.61;102211.22;10424238;28;20381;-75
2022/06/12 08:32:26;;;;;;;14.55;2.92;;;;;;;22.65;53.64;102215.47;10429134;28;20497;-75
2022/06/12 08:37:32;;;;;;;15.40;2.40;;;;;;;22.44;53.04;102211.16;10426424;28;20037;-74
2022/06/12 08:43:07;;;;;;;15.48;3.00;;;;;;;22.63;53.20;102209.34;10415320;28;20046;-74
2022/06/12 08:48:19;;;;;;;14.95;3.28;;;;;;;22.17;55.05;102205.94;10398811;28;20095;-75
2022/06/12 08:53:28;;;;;;;14.40;2.85;;;;;;;22.52;52.80;102198.88;10410302;28;20092;-75
2022/06/12 08:58:36;;;;;;;10.93;2.85;;;;;;;22.63;52.27;102196.22;10410075;28;20044;-73
2022/06/12 09:03:45;;;;;;;17.10;2.80;;;;;;;22.97;51.75;102196.06;10411248;28;20049;-74
2022/06/12 09:09:19;;;;;;;15.97;3.00;;;;;;;22.52;49.89;102188.38;10402137;28;20041;-75
2022/06/12 09:14:47;;;;;;;16.73;3.17;;;;;;;22.21;54.70;102184.94;10387755;28;20065;-74
2022/06/12 09:20:09;;;;;;;10.20;2.92;;;;;;;23.38;51.20;102173.91;10408143;28;20049;-74
2022/06/12 09:25:33;;;;;;;7.82;2.45;;;;;;;23.37;47.39;102174.81;10405305;28;20507;-74
2022/06/12 09:30:55;;;;;;;12.63;2.83;;;;;;;23.22;50.23;102167.03;10406481;28;20050;-74
2022/06/12 09:36:13;;;;;;;11.10;2.90;;;;;;;23.51;49.53;102168.56;10406802;28;20045;-74
2022/06/12 09:41:20;;;;;;;13.85;3.53;;;;;;;22.31;52.09;102163.91;10411940;28;20093;-74
2022/06/12 09:46:30;;;;;;;11.75;2.35;;;;;;;23.58;49.15;102157.09;10409296;28;20580;-74
2022/06/12 09:52:02;;;;;;;9.93;2.67;;;;;;;23.64;46.37;102158.81;10407390;28;20045;-74
2022/06/12 09:57:22;;;;;;;7.93;2.40;;;;;;;23.68;45.96;102158.78;10415601;28;20056;-74
2022/06/12 10:02:50;;;;;;;11.35;2.28;;;;;;;23.03;46.32;102153.09;10413044;28;20053;-74
2022/06/12 10:08:12;;;;;;;7.82;2.20;;;;;;;23.44;47.54;102158.09;10400170;28;20734;-74
2022/06/12 10:13:21;;;;;;;6.63;2.00;;;;;;;23.77;46.26;102153.44;10410851;28;20169;-74
2022/06/12 10:18:29;;;;;;;7.63;2.20;;;;;;;21.96;44.51;102159.63;10409303;28;20103;-74
2022/06/12 10:23:30;;;;;;;7.28;1.80;;;;;;;21.76;45.74;102161.38;10402764;28;20045;-74
2022/06/12 10:28:36;;;;;;;7.60;2.00;;;;;;;21.56;47.42;102163.09;10406387;28;20030;-74
2022/06/12 10:33:49;;;;;;;8.73;2.13;;;;;;;23.13;44.24;102154.78;10390346;28;20460;-75
2022/06/12 10:38:50;;;;;;;12.27;1.80;;;;;;;22.43;47.40;102152.53;10408081;28;20037;-74
2022/06/12 10:43:58;;;;;;;7.65;1.92;;;;;;;22.80;46.54;102152.38;10406499;28;20393;-74
2022/06/12 10:49:02;;;;;;;7.32;1.80;;;;;;;21.79;46.15;102149.13;10399230;28;20042;-74
2022/06/12 11:01:28;;;;;;;7.95;2.10;;;;;;;22.57;44.64;102148.97;10507576;23;20053;-75
2022/06/12 11:06:43;;;;;;;9.18;2.08;;;;;;;22.87;44.77;102141.81;10522729;28;20029;-74
2022/06/12 11:12:10;;;;;;;7.18;2.10;;;;;;;23.61;43.71;102146.56;10530389;28;20048;-74
2022/06/12 11:17:39;;;;;;;7.25;2.13;;;;;;;23.52;43.54;102136.13;10531135;28;20051;-74
2022/06/12 11:22:56;;;;;;;40.63;3.37;;;;;;;22.96;43.60;102140.00;10515107;28;20052;-74
2022/06/12 11:28:28;;;;;;;9.15;2.17;;;;;;;22.46;44.46;102131.50;10533268;28;20048;-74
2022/06/12 11:34:14;;;;;;;9.90;2.03;;;;;;;23.02;44.49;102125.06;10534677;28;20160;-74
2022/06/12 11:39:25;;;;;;;8.25;1.90;;;;;;;23.01;44.16;102126.84;10531354;28;20702;-74
2022/06/12 11:44:36;;;;;;;7.25;1.65;;;;;;;23.33;42.85;102117.88;10526126;28;20047;-74
2022/06/12 11:50:19;;;;;;;4.30;1.70;;;;;;;23.05;45.30;102123.28;10492653;28;20055;-75
2022/06/12 11:55:36;;;;;;;7.55;2.13;;;;;;;23.18;44.15;102125.88;10452418;28;20055;-74
2022/06/12 12:01:09;;;;;;;11.15;2.03;;;;;;;22.37;43.26;102120.13;10532360;28;20044;-75
2022/06/12 12:06:20;;;;;;;7.85;1.83;;;;;;;21.81;45.29;102115.91;10522564;28;20079;-75
2022/06/12 12:11:32;;;;;;;6.88;2.20;;;;;;;21.58;47.22;102118.59;10514608;28;20043;-74
2022/06/12 12:16:59;;;;;;;7.78;2.33;;;;;;;22.50;44.10;102117.50;10520172;28;20495;-73
2022/06/12 12:22:06;;;;;;;12.25;2.60;;;;;;;22.38;48.37;102112.25;10528597;28;20040;-74
2022/06/12 12:27:17;;;;;;;6.47;2.20;;;;;;;22.04;47.23;102109.75;10530040;28;20044;-74
2022/06/12 12:32:20;;;;;;;8.40;2.10;;;;;;;22.15;45.71;102109.72;10514505;28;20097;-74
2022/06/12 12:42:43;;;;;;;6.35;1.98;;;;;;;21.73;46.30;102112.44;10521659;28;20090;-74
2022/06/12 12:47:44;;;;;;;8.07;2.03;;;;;;;22.86;45.60;102100.66;10501461;28;20064;-74
2022/06/12 12:52:52;;;;;;;9.55;2.35;;;;;;;22.79;44.12;102100.69;10510731;28;20044;-74
2022/06/12 12:57:56;;;;;;;10.68;1.92;;;;;;;23.09;43.23;102098.75;10513295;28;20380;-74
2022/06/12 13:03:09;;;;;;;6.20;1.92;;;;;;;23.06;42.83;102100.53;10537781;28;20044;-75
2022/06/12 13:08:42;;;;;;;7.00;1.73;;;;;;;23.69;43.34;102092.13;10534161;28;20044;-75
2022/06/12 13:14:30;;;;;;;5.55;1.58;;;;;;;23.25;40.27;102085.50;10519296;28;20082;-74
2022/06/12 13:20:00;;;;;;;5.97;1.77;;;;;;;23.37;41.01;102100.31;10456565;28;20044;-75
2022/06/12 13:25:10;;;;;;;3.35;1.30;;;;;;;23.09;41.67;102101.38;10493601;28;20547;-76
2022/06/12 13:30:19;;;;;;;8.05;1.33;;;;;;;22.84;41.55;102086.66;10534506;28;20038;-74
2022/06/12 13:35:31;;;;;;;6.95;1.50;;;;;;;22.48;41.47;102087.72;10528194;28;20477;-75
2022/06/12 13:40:38;;;;;;;7.85;1.75;;;;;;;22.86;41.97;102083.13;10495081;28;20036;-74
2022/06/12 13:45:58;;;;;;;7.70;1.70;;;;;;;22.60;41.15;102080.69;10519406;28;20072;-75
2022/06/12 13:51:28;;;;;;;6.95;1.63;;;;;;;22.47;41.41;102078.09;10509881;28;20451;-75
2022/06/12 13:56:30;;;;;;;4.40;1.33;;;;;;;22.86;39.86;102071.75;10527883;28;20086;-75
2022/06/12 14:01:32;;;;;;;9.70;1.90;;;;;;;22.76;39.10;102066.56;10530021;28;20055;-75
2022/06/12 14:06:38;;;;;;;5.55;1.45;;;;;;;22.82;40.71;102061.25;10530509;28;20040;-75
2022/06/12 14:11:41;;;;;;;3.75;1.08;;;;;;;22.49;38.84;102065.84;10533096;28;20448;-74
2022/06/12 14:16:46;;;;;;;3.95;1.10;;;;;;;22.52;38.36;102061.47;10530760;28;20078;-74
2022/06/12 14:21:59;;;;;;;2.85;0.88;;;;;;;22.73;37.87;102056.09;10539794;28;20097;-74
2022/06/12 14:27:01;;;;;;;2.92;0.93;;;;;;;22.30;37.38;102057.16;10535575;28;20062;-75
2022/06/12 14:32:12;;;;;;;3.08;1.00;;;;;;;22.56;38.44;102039.56;10537577;28;20044;-75
2022/06/12 14:37:32;;;;;;;3.85;1.00;;;;;;;22.43;36.88;102046.63;10517155;28;20040;-74
2022/06/12 14:42:34;;;;;;;2.83;1.02;;;;;;;22.54;36.69;102049.19;10522805;28;20048;-74
2022/06/12 14:47:35;;;;;;;3.92;1.00;;;;;;;22.09;36.77;102044.13;10516123;28;20043;-74
2022/06/12 14:52:37;;;;;;;3.05;0.63;;;;;;;21.96;35.98;102040.69;10521274;28;20599;-74
2022/06/12 14:57:39;;;;;;;3.50;1.17;;;;;;;21.93;36.92;102043.34;10508873;28;20121;-75
2022/06/12 15:02:40;;;;;;;2.45;0.98;;;;;;;22.03;36.68;102035.41;10512237;28;20066;-75
2022/06/12 15:07:42;;;;;;;4.25;0.98;;;;;;;22.16;37.71;102038.84;10510545;28;20044;-74
2022/06/12 15:12:45;;;;;;;3.53;0.75;;;;;;;21.95;37.10;102039.81;10508038;28;20040;-75
2022/06/12 15:17:46;;;;;;;2.80;0.88;;;;;;;21.61;38.20;102039.03;10528682;28;20043;-75
2022/06/12 15:22:48;;;;;;;2.53;0.80;;;;;;;21.46;38.41;102040.78;10521082;28;20081;-76
2022/06/12 15:33:10;;;;;;;2.88;1.08;;;;;;;21.37;37.69;102040.78;10514526;28;20056;-78
2022/06/12 15:38:12;;;;;;;5.00;1.00;;;;;;;21.51;37.76;102039.00;10512543;28;20085;-78
2022/06/12 15:43:14;;;;;;;3.38;0.90;;;;;;;21.36;38.37;102026.81;10499791;28;20043;-77
2022/06/12 15:48:16;;;;;;;2.92;0.88;;;;;;;21.47;39.07;102037.28;10537243;28;20404;-78
2022/06/12 15:53:18;;;;;;;4.90;1.00;;;;;;;21.17;37.14;102033.81;10508594;28;20047;-77
2022/06/12 15:58:20;;;;;;;4.10;0.85;;;;;;;21.45;37.69;102019.78;10503741;28;20032;-77
2022/06/12 16:03:21;;;;;;;3.53;1.00;;;;;;;21.20;35.66;102020.69;10531881;28;20054;-77
2022/06/12 16:08:23;;;;;;;3.00;0.80;;;;;;;21.14;37.91;102015.47;10530285;28;20115;-78
2022/06/12 16:13:25;;;;;;;2.25;0.70;;;;;;;21.21;38.87;102011.09;10504863;28;20105;-78
2022/06/12 16:18:28;;;;;;;2.28;0.80;;;;;;;21.38;38.85;102003.22;10509136;28;20041;-77
2022/06/12 16:23:29;;;;;;;4.05;1.10;;;;;;;22.00;38.87;102006.56;10532496;28;20078;-78
2022/06/12 16:28:39;;;;;;;5.65;1.40;;;;;;;21.56;38.57;102011.03;10511162;28;20094;-78
2022/06/12 16:33:40;;;;;;;3.83;1.08;;;;;;;21.40;38.86;102006.72;10525866;28;20051;-78
2022/06/12 16:38:42;;;;;;;2.60;0.90;;;;;;;21.51;39.88;102004.06;10523495;28;20045;-78
2022/06/12 16:43:45;;;;;;;2.63;1.10;;;;;;;21.63;40.87;101998.81;10520147;28;20056;-77
2022/06/12 16:49:02;;;;;;;5.85;1.13;;;;;;;21.67;39.72;102002.31;10537462;28;20432;-78
2022/06/12 16:54:03;;;;;;;2.55;1.10;;;;;;;21.40;41.00;101998.84;10529568;28;20449;-77
2022/06/12 16:59:05;;;;;;;4.20;1.08;;;;;;;21.29;40.74;101997.97;10528602;28;20040;-76
2022/06/12 17:04:06;;;;;;;3.63;1.10;;;;;;;21.39;42.09;102002.34;10538726;28;20031;-78
2022/06/12 17:09:09;;;;;;;1.95;1.10;;;;;;;21.35;42.17;102001.47;10538000;28;20119;-77
2022/06/12 17:14:11;;;;;;;3.13;1.10;;;;;;;21.28;40.79;102004.09;10522713;28;20406;-77
2022/06/12 17:24:38;;;;;;;3.47;1.02;;;;;;;21.27;39.79;101989.22;10497671;28;20125;-76
2022/06/12 17:29:41;;;;;;;2.85;1.00;;;;;;;21.16;40.84;101998.00;10518015;28;20101;-77
2022/06/12 17:34:43;;;;;;;4.45;1.20;;;;;;;20.88;40.73;101986.66;10543717;28;20479;-78
2022/06/12 17:39:45;;;;;;;2.47;1.20;;;;;;;21.14;41.39;101991.88;10540063;28;20048;-77
2022/06/12 17:44:46;;;;;;;5.10;1.20;;;;;;;21.08;42.71;101986.66;10538267;28;20487;-77
2022/06/12 17:49:48;;;;;;;4.22;1.00;;;;;;;20.75;41.20;101989.28;10528089;28;20055;-77
2022/06/12 17:54:53;;;;;;;3.88;1.30;;;;;;;20.70;43.80;101979.63;10539120;28;20046;-77
2022/06/12 18:00:03;;;;;;;3.33;1.30;;;;;;;20.10;45.87;101985.59;10517862;28;20044;-77
2022/06/12 18:05:11;;;;;;;6.78;2.38;;;;;;;20.31;46.60;101991.75;10534378;28;20076;-77
2022/06/12 18:10:16;;;;;;;4.72;1.77;;;;;;;20.02;48.93;101987.31;10537855;28;20082;-77
2022/06/12 18:20:42;;;;;;;4.88;1.40;;;;;;;19.71;49.04;101985.41;10523683;28;20109;-77
2022/06/12 18:25:45;;;;;;;7.20;2.08;;;;;;;19.58;49.87;101979.25;10527204;28;20036;-77
2022/06/12 18:30:46;;;;;;;6.95;2.08;;;;;;;19.56;50.36;101985.34;10506967;28;20036;-76
2022/06/12 18:35:52;;;;;;;6.72;1.80;;;;;;;19.65;51.19;101985.38;10532560;28;20470;-76
2022/06/12 18:40:53;;;;;;;4.72;1.73;;;;;;;19.66;51.49;101988.00;10531163;28;20032;-77
2022/06/12 18:45:56;;;;;;;6.05;1.80;;;;;;;19.27;49.57;101983.41;10520351;28;20050;-76
2022/06/12 18:50:58;;;;;;;6.78;1.90;;;;;;;19.29;50.95;101987.78;10515561;28;20476;-77
2022/06/12 18:56:02;;;;;;;8.10;2.55;;;;;;;19.02;50.93;101989.31;10523005;28;20093;-77
2022/06/12 19:01:03;;;;;;;5.35;1.70;;;;;;;18.89;51.03;101991.78;10531923;28;20105;-78
2022/06/12 19:06:12;;;;;;;5.50;2.10;;;;;;;18.70;51.87;101992.50;10540522;28;20044;-78
2022/06/12 19:11:36;;;;;;;9.63;2.17;;;;;;;18.52;53.69;101998.41;10533503;28;20052;-77
2022/06/12 19:16:39;;;;;;;5.95;2.05;;;;;;;18.24;55.31;101994.63;10540333;28;20051;-77
2022/06/12 19:21:45;;;;;;;5.00;2.20;;;;;;;18.07;57.43;101992.69;10521240;28;20139;-77
2022/06/12 19:26:48;;;;;;;8.10;2.50;;;;;;;17.90;58.09;101991.56;10540221;28;20071;-77
2022/06/12 19:31:52;;;;;;;11.63;2.35;;;;;;;17.66;59.38;102003.41;10539033;28;20119;-77
2022/06/12 19:37:01;;;;;;;9.13;2.15;;;;;;;17.53;60.08;102006.72;10521575;28;20047;-77
2022/06/12 19:42:05;;;;;;;5.35;2.05;;;;;;;17.43;60.63;101997.84;10507092;28;20044;-77
2022/06/12 19:47:09;;;;;;;5.82;2.38;;;;;;;17.13;62.20;102009.53;10537015;28;20048;-77
2022/06/12 19:52:11;;;;;;;9.35;3.30;;;;;;;16.89;62.02;102018.69;10549563;28;20104;-77
2022/06/12 19:57:13;;;;;;;8.18;2.60;;;;;;;16.84;63.59;102024.66;10573125;28;20058;-77
2022/06/12 20:02:15;;;;;;;8.90;2.67;;;;;;;16.49;62.91;102034.41;10539227;28;20498;-77
2022/06/12 20:07:26;;;;;;;9.73;2.78;;;;;;;16.74;61.68;102037.47;10502699;28;20430;-77
2022/06/12 20:12:30;;;;;;;7.18;2.40;;;;;;;16.30;63.53;102042.69;10526374;28;20094;-77
2022/06/12 20:17:32;;;;;;;8.02;2.78;;;;;;;15.98;64.03;102046.38;10520176;28;20048;-77
2022/06/12 20:22:34;;;;;;;10.73;3.17;;;;;;;16.18;63.40;102044.22;10571476;28;20044;-77
2022/06/12 20:27:36;;;;;;;11.00;3.50;;;;;;;16.10;64.12;102045.78;10538554;28;20491;-77
2022/06/12 20:32:37;;;;;;;8.18;2.85;;;;;;;15.96;65.88;102047.22;10538921;28;20040;-77
2022/06/12 20:37:39;;;;;;;10.63;2.83;;;;;;;15.88;65.45;102051.34;10540621;28;20492;-77
2022/06/12 20:42:41;;;;;;;8.60;3.20;;;;;;;15.85;64.84;102054.75;10554750;28;20109;-76
2022/06/12 20:47:42;;;;;;;8.25;2.83;;;;;;;15.70;67.60;102050.03;10525478;28;20051;-76
2022/06/12 20:52:44;;;;;;;7.68;2.97;;;;;;;15.46;68.75;102040.84;10536115;28;20460;-77
2022/06/12 20:57:46;;;;;;;9.07;3.08;;;;;;;15.37;67.29;102044.09;10574326;28;20037;-77
2022/06/12 21:02:58;;;;;;;9.80;2.90;;;;;;;15.24;68.34;102044.63;10546177;28;20036;-76
2022/06/12 21:08:00;;;;;;;8.10;2.72;;;;;;;15.11;68.99;102051.22;10546087;28;20044;-77
2022/06/12 21:13:02;;;;;;;9.45;3.22;;;;;;;15.04;69.54;102047.59;10527988;28;20036;-77
2022/06/12 21:18:09;;;;;;;12.40;3.08;;;;;;;15.00;70.07;102055.28;10525269;28;20036;-77
2022/06/12 21:23:14;;;;;;;7.57;3.03;;;;;;;14.91;70.30;102067.16;10534389;28;20048;-77
2022/06/12 21:28:18;;;;;;;10.30;3.13;;;;;;;14.70;70.70;102069.19;10553548;28;20035;-77
2022/06/12 21:33:20;;;;;;;8.02;3.78;;;;;;;14.58;71.80;102052.41;10536358;28;20134;-77
2022/06/12 21:38:22;;;;;;;10.82;4.00;;;;;;;14.48;72.80;102055.59;10545437;28;20044;-76
2022/06/12 21:43:24;;;;;;;10.55;4.10;;;;;;;14.36;73.06;102050.03;10521304;28;20499;-77
2022/06/12 21:48:26;;;;;;;9.35;3.45;;;;;;;13.95;74.56;102041.13;10523389;28;20081;-76
2022/06/12 21:58:49;;;;;;;9.48;3.50;;;;;;;13.98;74.22;102031.66;10542043;28;20086;-76
2022/06/12 22:03:50;;;;;;;12.10;4.10;;;;;;;13.82;76.23;102031.19;10520839;28;20044;-76
2022/06/12 22:08:52;;;;;;;9.25;3.75;;;;;;;13.70;75.83;102025.63;10520906;28;20066;-76
2022/06/12 22:13:54;;;;;;;11.40;4.00;;;;;;;13.56;76.33;102023.50;10521030;28;20543;-76
2022/06/12 22:18:55;;;;;;;10.38;3.55;;;;;;;13.36;77.81;102032.31;10520465;28;20047;-76
2022/06/12 22:23:57;;;;;;;10.32;4.47;;;;;;;13.31;78.46;102030.44;10538122;28;20040;-76
2022/06/12 22:28:59;;;;;;;14.52;4.22;;;;;;;13.26;79.27;102033.69;10520543;28;20047;-76
2022/06/12 22:34:01;;;;;;;8.85;3.80;;;;;;;13.15;78.88;102035.94;10503553;28;20117;-76
2022/06/12 22:39:02;;;;;;;11.63;4.07;;;;;;;12.93;78.61;102045.56;10522163;28;20036;-76
2022/06/12 22:44:04;;;;;;;7.38;3.45;;;;;;;12.90;79.12;102045.47;10520828;28;20117;-76
2022/06/12 22:49:06;;;;;;;12.75;4.20;;;;;;;12.81;79.27;102027.03;10538707;28;20502;-76
2022/06/12 22:54:08;;;;;;;8.52;3.95;;;;;;;12.62;79.96;102034.13;10539897;28;20040;-76
2022/06/12 22:59:09;;;;;;;12.20;4.18;;;;;;;12.03;83.90;102038.88;10544704;28;20090;-76
2022/06/12 23:04:13;;;;;;;14.15;4.40;;;;;;;12.12;84.73;102030.56;10535191;28;20051;-76
2022/06/12 23:09:15;;;;;;;9.75;3.60;;;;;;;12.55;82.90;102042.50;10538940;28;20081;-77
2022/06/12 23:14:17;;;;;;;8.40;4.35;;;;;;;12.47;82.39;102054.28;10551879;28;20043;-76
2022/06/12 23:19:18;;;;;;;8.23;4.20;;;;;;;12.41;82.45;102051.44;10526730;28;20044;-76
2022/06/12 23:24:20;;;;;;;11.63;4.43;;;;;;;12.00;82.70;102057.72;10538612;28;20384;-76
2022/06/12 23:29:25;;;;;;;9.30;3.97;;;;;;;12.12;82.66;102034.06;10521651;28;20052;-76
2022/06/12 23:34:26;;;;;;;14.18;4.60;;;;;;;12.17;82.83;102044.56;10515477;28;20051;-77
2022/06/12 23:39:28;;;;;;;10.40;4.90;;;;;;;12.15;82.87;102049.66;10532311;28;20036;-76
2022/06/12 23:44:29;;;;;;;13.45;4.78;;;;;;;12.10;83.42;102037.41;10528117;28;20043;-76
2022/06/12 23:49:31;;;;;;;11.07;4.45;;;;;;;12.12;83.25;102021.16;10523007;28;20048;-76
2022/06/12 23:54:32;;;;;;;8.80;4.70;;;;;;;12.13;83.30;102022.91;10544822;28;20089;-76
2022/06/12 23:59:34;;;;;;;8.45;4.75;;;;;;;12.00;82.47;102025.81;10535760;28;20068;-76
